Frankfort, Michigan
Current Conditions -  °F | °C
As of 5:53 AM on Friday 19 Dec 2014 (Local Time) from KFKS Reporting Station
Overcast Overcast  
Wind Chill: 14°   Ceiling: 2100
Heat Index: 14°   Visibility: 10mi
Dew Point: 13°   Wind: 0mph
Humidity: 95%   Direction: NA
Pressure: 30.26"   Gusts: NA
Location:  44.63°N, 86.23°W
Report Text: KFKS 191053Z AUTO 00000KT 10SM OVC021 M10/M11 A3026 RMK AO2 T11011108
Loading
Personal Weather Stations






























Interactive Weather Map New forecast layout! Learn more

10-Day Weather Forecast

Advertisements
Track Severe Weather on mobile